sensor_id;sensor_type;location;lat;lon;timestamp;temperature;humidity
1055;DHT22;516;51.482;7.120;2023-05-20T00:03:18;10.90;99.90
1055;DHT22;516;51.482;7.120;2023-05-20T00:13:06;11.00;99.90
1055;DHT22;516;51.482;7.120;2023-05-20T00:18:53;11.10;99.90
1055;DHT22;516;51.482;7.120;2023-05-20T00:24:43;11.20;99.90
1055;DHT22;516;51.482;7.120;2023-05-20T00:30:31;11.20;99.90
1055;DHT22;516;51.482;7.120;2023-05-20T00:36:18;11.20;99.90
1055;DHT22;516;51.482;7.120;2023-05-20T00:42:06;11.00;99.90
1055;DHT22;516;51.482;7.120;2023-05-20T00:47:54;10.90;99.90
1055;DHT22;516;51.482;7.120;2023-05-20T00:53:45;11.00;99.90
1055;DHT22;516;51.482;7.120;2023-05-20T00:59:35;11.10;99.90
1055;DHT22;516;51.482;7.120;2023-05-20T01:05:23;11.20;99.90
1055;DHT22;516;51.482;7.120;2023-05-20T01:11:12;11.30;99.90
1055;DHT22;516;51.482;7.120;2023-05-20T01:17:02;11.30;99.90
1055;DHT22;516;51.482;7.120;2023-05-20T01:22:56;11.20;99.90
1055;DHT22;516;51.482;7.120;2023-05-20T01:28:43;11.10;99.90
1055;DHT22;516;51.482;7.120;2023-05-20T01:34:32;10.90;99.90
1055;DHT22;516;51.482;7.120;2023-05-20T01:40:21;10.80;99.90
1055;DHT22;516;51.482;7.120;2023-05-20T01:46:10;10.70;99.90
1055;DHT22;516;51.482;7.120;2023-05-20T01:51:58;10.60;99.90
1055;DHT22;516;51.482;7.120;2023-05-20T01:57:46;10.40;99.90
1055;DHT22;516;51.482;7.120;2023-05-20T02:03:15;10.50;99.90
1055;DHT22;516;51.482;7.120;2023-05-20T02:18:56;10.10;99.90
1055;DHT22;516;51.482;7.120;2023-05-20T02:24:44;9.80;99.90
1055;DHT22;516;51.482;7.120;2023-05-20T02:30:32;9.60;99.90
1055;DHT22;516;51.482;7.120;2023-05-20T02:36:20;9.80;99.90
1055;DHT22;516;51.482;7.120;2023-05-20T02:42:08;9.80;99.90
1055;DHT22;516;51.482;7.120;2023-05-20T02:47:56;10.00;99.90
1055;DHT22;516;51.482;7.120;2023-05-20T02:53:44;9.80;99.90
1055;DHT22;516;51.482;7.120;2023-05-20T02:59:32;9.70;99.90
1055;DHT22;516;51.482;7.120;2023-05-20T03:05:20;9.80;99.90
1055;DHT22;516;51.482;7.120;2023-05-20T03:11:04;10.00;99.90
1055;DHT22;516;51.482;7.120;2023-05-20T03:16:53;10.10;99.90
1055;DHT22;516;51.482;7.120;2023-05-20T03:22:42;10.10;99.90
1055;DHT22;516;51.482;7.120;2023-05-20T03:28:30;10.30;99.90
1055;DHT22;516;51.482;7.120;2023-05-20T03:34:17;10.10;99.90
1055;DHT22;516;51.482;7.120;2023-05-20T03:40:06;10.10;99.90
1055;DHT22;516;51.482;7.120;2023-05-20T03:45:56;10.20;99.90
1055;DHT22;516;51.482;7.120;2023-05-20T03:51:43;10.20;99.90
1055;DHT22;516;51.482;7.120;2023-05-20T03:57:31;10.30;99.90
1055;DHT22;516;51.482;7.120;2023-05-20T04:03:20;10.30;99.90
1055;DHT22;516;51.482;7.120;2023-05-20T04:13:11;10.60;99.90
1055;DHT22;516;51.482;7.120;2023-05-20T04:18:59;10.70;99.90
1055;DHT22;516;51.482;7.120;2023-05-20T04:24:47;10.80;99.90
1055;DHT22;516;51.482;7.120;2023-05-20T04:30:35;11.00;99.90
1055;DHT22;516;51.482;7.120;2023-05-20T04:36:23;11.10;99.90
1055;DHT22;516;51.482;7.120;2023-05-20T04:42:15;11.20;99.90
1055;DHT22;516;51.482;7.120;2023-05-20T04:48:04;11.50;99.90
1055;DHT22;516;51.482;7.120;2023-05-20T04:53:53;11.80;99.90
1055;DHT22;516;51.482;7.120;2023-05-20T04:59:40;12.20;99.90
1055;DHT22;516;51.482;7.120;2023-05-20T05:05:28;12.40;99.90
1055;DHT22;516;51.482;7.120;2023-05-20T05:11:05;12.70;99.90
1055;DHT22;516;51.482;7.120;2023-05-20T05:16:53;13.10;99.90
1055;DHT22;516;51.482;7.120;2023-05-20T05:22:41;13.60;99.90
1055;DHT22;516;51.482;7.120;2023-05-20T05:28:29;13.60;99.90
1055;DHT22;516;51.482;7.120;2023-05-20T05:34:17;13.60;99.90
1055;DHT22;516;51.482;7.120;2023-05-20T05:40:06;14.10;99.90
1055;DHT22;516;51.482;7.120;2023-05-20T05:45:54;14.30;99.90
1055;DHT22;516;51.482;7.120;2023-05-20T05:51:42;14.90;99.90
1055;DHT22;516;51.482;7.120;2023-05-20T05:57:31;14.90;99.90
1055;DHT22;516;51.482;7.120;2023-05-20T06:03:18;15.50;99.90
1055;DHT22;516;51.482;7.120;2023-05-20T06:18:57;15.20;99.90
1055;DHT22;516;51.482;7.120;2023-05-20T06:24:45;15.90;93.10
1055;DHT22;516;51.482;7.120;2023-05-20T06:30:33;16.40;77.40
1055;DHT22;516;51.482;7.120;2023-05-20T06:36:21;15.50;90.90
1055;DHT22;516;51.482;7.120;2023-05-20T06:42:08;14.80;99.90
1055;DHT22;516;51.482;7.120;2023-05-20T06:47:56;15.00;99.90
1055;DHT22;516;51.482;7.120;2023-05-20T06:53:44;15.10;99.90
1055;DHT22;516;51.482;7.120;2023-05-20T06:59:32;15.30;99.90
1055;DHT22;516;51.482;7.120;2023-05-20T07:05:19;15.70;98.60
1055;DHT22;516;51.482;7.120;2023-05-20T07:11:23;15.70;95.70
1055;DHT22;516;51.482;7.120;2023-05-20T07:17:11;15.80;90.40
1055;DHT22;516;51.482;7.120;2023-05-20T07:22:58;15.50;92.50
1055;DHT22;516;51.482;7.120;2023-05-20T07:28:47;15.80;93.60
1055;DHT22;516;51.482;7.120;2023-05-20T07:34:34;15.50;97.60
1055;DHT22;516;51.482;7.120;2023-05-20T07:40:24;15.70;96.00
1055;DHT22;516;51.482;7.120;2023-05-20T07:46:12;15.50;93.80
1055;DHT22;516;51.482;7.120;2023-05-20T07:51:59;15.60;95.70
1055;DHT22;516;51.482;7.120;2023-05-20T07:57:48;15.50;91.60
1055;DHT22;516;51.482;7.120;2023-05-20T08:03:35;16.10;91.10
1055;DHT22;516;51.482;7.120;2023-05-20T08:13:13;16.20;85.70
1055;DHT22;516;51.482;7.120;2023-05-20T08:19:01;16.40;81.10
1055;DHT22;516;51.482;7.120;2023-05-20T08:24:49;16.70;79.20
1055;DHT22;516;51.482;7.120;2023-05-20T08:30:36;17.10;62.40
1055;DHT22;516;51.482;7.120;2023-05-20T08:36:24;16.40;67.80
1055;DHT22;516;51.482;7.120;2023-05-20T08:42:12;16.30;71.20
1055;DHT22;516;51.482;7.120;2023-05-20T08:47:59;16.70;66.80
1055;DHT22;516;51.482;7.120;2023-05-20T08:53:48;17.10;62.80
1055;DHT22;516;51.482;7.120;2023-05-20T08:59:36;16.90;63.90
1055;DHT22;516;51.482;7.120;2023-05-20T09:05:24;17.70;59.10
1055;DHT22;516;51.482;7.120;2023-05-20T09:11:24;16.90;59.30
1055;DHT22;516;51.482;7.120;2023-05-20T09:17:12;17.40;60.50
1055;DHT22;516;51.482;7.120;2023-05-20T09:23:06;16.90;59.70
1055;DHT22;516;51.482;7.120;2023-05-20T09:28:56;16.80;59.80
1055;DHT22;516;51.482;7.120;2023-05-20T09:34:45;16.80;69.00
1055;DHT22;516;51.482;7.120;2023-05-20T09:40:33;17.00;69.70
1055;DHT22;516;51.482;7.120;2023-05-20T09:46:23;16.70;65.70
1055;DHT22;516;51.482;7.120;2023-05-20T09:52:14;16.80;66.20
1055;DHT22;516;51.482;7.120;2023-05-20T09:58:02;16.60;70.90
1055;DHT22;516;51.482;7.120;2023-05-20T10:03:51;16.70;71.20
1055;DHT22;516;51.482;7.120;2023-05-20T10:19:47;16.60;73.20
1055;DHT22;516;51.482;7.120;2023-05-20T10:25:36;17.30;73.20
1055;DHT22;516;51.482;7.120;2023-05-20T10:31:23;17.50;65.10
1055;DHT22;516;51.482;7.120;2023-05-20T10:43:45;17.00;70.60
1055;DHT22;516;51.482;7.120;2023-05-20T10:49:34;17.10;74.30
1055;DHT22;516;51.482;7.120;2023-05-20T10:55:22;17.70;70.00
1055;DHT22;516;51.482;7.120;2023-05-20T11:01:10;18.10;64.30
1055;DHT22;516;51.482;7.120;2023-05-20T11:06:58;18.30;58.70
1055;DHT22;516;51.482;7.120;2023-05-20T11:12:48;18.40;56.20
1055;DHT22;516;51.482;7.120;2023-05-20T11:18:36;18.40;57.50
1055;DHT22;516;51.482;7.120;2023-05-20T11:24:25;19.20;56.10
1055;DHT22;516;51.482;7.120;2023-05-20T11:30:14;18.80;46.00
1055;DHT22;516;51.482;7.120;2023-05-20T11:36:03;19.40;47.80
1055;DHT22;516;51.482;7.120;2023-05-20T11:41:51;20.40;43.00
1055;DHT22;516;51.482;7.120;2023-05-20T11:47:38;20.60;37.90
1055;DHT22;516;51.482;7.120;2023-05-20T11:53:26;21.00;33.90
1055;DHT22;516;51.482;7.120;2023-05-20T11:59:13;20.70;29.20
1055;DHT22;516;51.482;7.120;2023-05-20T12:05:01;21.40;27.40
1055;DHT22;516;51.482;7.120;2023-05-20T12:10:49;21.10;26.70
1055;DHT22;516;51.482;7.120;2023-05-20T12:16:37;21.00;27.10
1055;DHT22;516;51.482;7.120;2023-05-20T12:22:25;21.20;26.20
1055;DHT22;516;51.482;7.120;2023-05-20T12:28:12;21.50;25.10
1055;DHT22;516;51.482;7.120;2023-05-20T12:34:00;20.90;23.70
1055;DHT22;516;51.482;7.120;2023-05-20T12:39:47;21.30;24.10
1055;DHT22;516;51.482;7.120;2023-05-20T12:45:35;21.00;25.50
1055;DHT22;516;51.482;7.120;2023-05-20T12:51:23;20.90;26.50
1055;DHT22;516;51.482;7.120;2023-05-20T12:57:11;20.50;24.30
1055;DHT22;516;51.482;7.120;2023-05-20T13:02:59;20.20;26.60
1055;DHT22;516;51.482;7.120;2023-05-20T13:08:46;20.90;26.30
1055;DHT22;516;51.482;7.120;2023-05-20T13:14:34;20.80;25.50
1055;DHT22;516;51.482;7.120;2023-05-20T13:20:22;20.60;25.10
1055;DHT22;516;51.482;7.120;2023-05-20T13:26:10;20.60;25.20
1055;DHT22;516;51.482;7.120;2023-05-20T13:31:58;20.40;25.10
1055;DHT22;516;51.482;7.120;2023-05-20T13:37:45;20.00;26.40
1055;DHT22;516;51.482;7.120;2023-05-20T13:43:33;21.00;27.10
1055;DHT22;516;51.482;7.120;2023-05-20T13:49:21;21.00;23.00
1055;DHT22;516;51.482;7.120;2023-05-20T13:54:50;21.10;22.40
1055;DHT22;516;51.482;7.120;2023-05-20T14:00:38;21.10;22.20
1055;DHT22;516;51.482;7.120;2023-05-20T14:06:26;20.70;23.00
1055;DHT22;516;51.482;7.120;2023-05-20T14:15:37;19.90;24.00
1055;DHT22;516;51.482;7.120;2023-05-20T14:21:25;19.90;25.30
1055;DHT22;516;51.482;7.120;2023-05-20T14:27:13;19.60;26.20
1055;DHT22;516;51.482;7.120;2023-05-20T14:33:01;19.40;26.50
1055;DHT22;516;51.482;7.120;2023-05-20T14:38:49;19.40;27.70
1055;DHT22;516;51.482;7.120;2023-05-20T14:44:36;19.30;27.40
1055;DHT22;516;51.482;7.120;2023-05-20T14:50:24;19.80;26.80
1055;DHT22;516;51.482;7.120;2023-05-20T14:56:12;20.20;26.00
1055;DHT22;516;51.482;7.120;2023-05-20T15:01:59;19.70;26.20
1055;DHT22;516;51.482;7.120;2023-05-20T15:07:47;19.50;28.40
1055;DHT22;516;51.482;7.120;2023-05-20T15:13:23;19.20;29.50
1055;DHT22;516;51.482;7.120;2023-05-20T15:19:12;20.10;29.20
1055;DHT22;516;51.482;7.120;2023-05-20T15:24:59;20.30;25.00
1055;DHT22;516;51.482;7.120;2023-05-20T15:30:51;20.20;24.00
1055;DHT22;516;51.482;7.120;2023-05-20T15:36:40;19.40;28.50
1055;DHT22;516;51.482;7.120;2023-05-20T15:42:28;19.00;29.40
1055;DHT22;516;51.482;7.120;2023-05-20T15:48:15;19.20;30.00
1055;DHT22;516;51.482;7.120;2023-05-20T15:54:03;19.20;30.50
1055;DHT22;516;51.482;7.120;2023-05-20T15:59:51;19.00;31.80
1055;DHT22;516;51.482;7.120;2023-05-20T16:05:38;18.60;34.30
1055;DHT22;516;51.482;7.120;2023-05-20T16:21:12;18.20;41.50
1055;DHT22;516;51.482;7.120;2023-05-20T16:27:00;18.00;43.60
1055;DHT22;516;51.482;7.120;2023-05-20T16:32:51;18.00;46.00
1055;DHT22;516;51.482;7.120;2023-05-20T16:38:38;18.00;47.80
1055;DHT22;516;51.482;7.120;2023-05-20T16:44:26;17.90;49.30
1055;DHT22;516;51.482;7.120;2023-05-20T16:50:14;17.90;50.60
1055;DHT22;516;51.482;7.120;2023-05-20T16:56:02;17.80;53.10
1055;DHT22;516;51.482;7.120;2023-05-20T17:01:50;17.90;53.00
1055;DHT22;516;51.482;7.120;2023-05-20T17:07:37;17.90;53.50
1055;DHT22;516;51.482;7.120;2023-05-20T17:13:23;17.80;55.80
1055;DHT22;516;51.482;7.120;2023-05-20T17:19:11;17.80;55.20
1055;DHT22;516;51.482;7.120;2023-05-20T17:24:59;17.70;55.90
1055;DHT22;516;51.482;7.120;2023-05-20T17:30:47;17.60;56.30
1055;DHT22;516;51.482;7.120;2023-05-20T17:36:34;17.60;58.40
1055;DHT22;516;51.482;7.120;2023-05-20T17:42:22;17.50;61.50
1055;DHT22;516;51.482;7.120;2023-05-20T17:48:11;17.40;64.20
1055;DHT22;516;51.482;7.120;2023-05-20T17:54:01;17.30;63.80
1055;DHT22;516;51.482;7.120;2023-05-20T17:59:49;17.40;67.80
1055;DHT22;516;51.482;7.120;2023-05-20T18:05:37;17.40;69.10
1055;DHT22;516;51.482;7.120;2023-05-20T18:21:15;17.20;76.40
1055;DHT22;516;51.482;7.120;2023-05-20T18:27:03;17.30;79.00
1055;DHT22;516;51.482;7.120;2023-05-20T18:32:50;17.20;85.40
1055;DHT22;516;51.482;7.120;2023-05-20T18:38:39;17.20;88.60
1055;DHT22;516;51.482;7.120;2023-05-20T18:44:27;17.10;92.00
1055;DHT22;516;51.482;7.120;2023-05-20T18:50:15;17.00;93.90
1055;DHT22;516;51.482;7.120;2023-05-20T18:56:03;16.90;98.20
1055;DHT22;516;51.482;7.120;2023-05-20T19:01:51;16.70;99.90
1055;DHT22;516;51.482;7.120;2023-05-20T19:07:39;16.60;99.90
1055;DHT22;516;51.482;7.120;2023-05-20T19:13:22;16.40;99.90
1055;DHT22;516;51.482;7.120;2023-05-20T19:19:09;16.30;99.90
1055;DHT22;516;51.482;7.120;2023-05-20T19:24:57;16.20;99.90
1055;DHT22;516;51.482;7.120;2023-05-20T19:30:45;16.20;99.90
1055;DHT22;516;51.482;7.120;2023-05-20T19:36:33;16.20;99.90
1055;DHT22;516;51.482;7.120;2023-05-20T19:42:20;16.10;99.90
1055;DHT22;516;51.482;7.120;2023-05-20T19:48:08;16.10;99.90
1055;DHT22;516;51.482;7.120;2023-05-20T19:50:52;16.00;99.90
1055;DHT22;516;51.482;7.120;2023-05-20T19:53:18;15.90;99.90
1055;DHT22;516;51.482;7.120;2023-05-20T19:59:08;15.90;99.90
1055;DHT22;516;51.482;7.120;2023-05-20T20:04:55;15.80;99.90
1055;DHT22;516;51.482;7.120;2023-05-20T20:10:45;15.60;99.90
1055;DHT22;516;51.482;7.120;2023-05-20T20:16:33;15.40;99.90
1055;DHT22;516;51.482;7.120;2023-05-20T20:22:20;15.20;99.90
1055;DHT22;516;51.482;7.120;2023-05-20T20:28:09;15.00;99.90
1055;DHT22;516;51.482;7.120;2023-05-20T20:33:57;14.80;99.90
1055;DHT22;516;51.482;7.120;2023-05-20T20:39:45;14.80;99.90
1055;DHT22;516;51.482;7.120;2023-05-20T20:45:33;14.50;99.90
1055;DHT22;516;51.482;7.120;2023-05-20T20:51:23;14.20;99.90
1055;DHT22;516;51.482;7.120;2023-05-20T20:57:11;13.90;99.90
1055;DHT22;516;51.482;7.120;2023-05-20T21:03:00;13.70;99.90
1055;DHT22;516;51.482;7.120;2023-05-20T21:08:47;13.60;99.90
1055;DHT22;516;51.482;7.120;2023-05-20T21:17:57;13.70;99.90
1055;DHT22;516;51.482;7.120;2023-05-20T21:23:46;13.60;99.90
1055;DHT22;516;51.482;7.120;2023-05-20T21:29:34;13.50;99.90
1055;DHT22;516;51.482;7.120;2023-05-20T21:35:22;13.40;99.90
1055;DHT22;516;51.482;7.120;2023-05-20T21:41:09;13.30;99.90
1055;DHT22;516;51.482;7.120;2023-05-20T21:46:57;13.30;99.90
1055;DHT22;516;51.482;7.120;2023-05-20T21:52:45;13.30;99.90
1055;DHT22;516;51.482;7.120;2023-05-20T21:58:32;13.20;99.90
1055;DHT22;516;51.482;7.120;2023-05-20T22:04:27;13.20;99.90
1055;DHT22;516;51.482;7.120;2023-05-20T22:10:15;13.20;99.90
1055;DHT22;516;51.482;7.120;2023-05-20T22:15:54;13.30;99.90
1055;DHT22;516;51.482;7.120;2023-05-20T22:21:43;13.50;99.90
1055;DHT22;516;51.482;7.120;2023-05-20T22:27:31;13.60;99.90
1055;DHT22;516;51.482;7.120;2023-05-20T22:33:20;13.50;99.90
1055;DHT22;516;51.482;7.120;2023-05-20T22:39:09;13.50;99.90
1055;DHT22;516;51.482;7.120;2023-05-20T22:44:59;13.40;99.90
1055;DHT22;516;51.482;7.120;2023-05-20T22:50:47;13.30;99.90
1055;DHT22;516;51.482;7.120;2023-05-20T22:56:34;13.30;99.90
1055;DHT22;516;51.482;7.120;2023-05-20T23:02:22;13.20;99.90
1055;DHT22;516;51.482;7.120;2023-05-20T23:08:10;13.20;99.90
1055;DHT22;516;51.482;7.120;2023-05-20T23:17:57;13.10;99.90
1055;DHT22;516;51.482;7.120;2023-05-20T23:23:26;13.10;99.90
1055;DHT22;516;51.482;7.120;2023-05-20T23:29:14;12.90;99.90
1055;DHT22;516;51.482;7.120;2023-05-20T23:35:01;12.90;99.90
1055;DHT22;516;51.482;7.120;2023-05-20T23:40:50;12.80;99.90
1055;DHT22;516;51.482;7.120;2023-05-20T23:46:38;12.80;99.90
1055;DHT22;516;51.482;7.120;2023-05-20T23:52:26;12.50;99.90
1055;DHT22;516;51.482;7.120;2023-05-20T23:58:14;12.20;99.90
